Terminal Aerodrome Forecast
Issued by NWS

Home | Current Version | Previous Version | Text Only | Print | Product List | Glossary On
Versions: 1 2 3 4 5 6 7 8 9 10 11 12 13 14 15 16 17
000
FTUS44 KJAN 040500
TAFGTR
TAF
KGTR 040522Z 0406/0506 18010KT 6SM BR OVC015
     FM040800 18008KT 4SM BR OVC007
     FM041000 18005KT 2SM BR OVC003
     FM041500 20007KT 4SM BR OVC007
     FM041700 21010KT 6SM BR OVC015
     FM042000 23011KT 4SM -RA BR OVC015
     FM042200 30012KT 2SM -RA BR OVC007
     FM050000 35009KT 4SM -RA BR OVC015=

USA.gov is the U.S. government's official web portal to all federal, state and local government web resources and services.